sensor_id;sensor_type;location;lat;lon;timestamp;temperature;humidity
13446;DHT22;6795;51.232;3.764;2023-01-29T00:00:16;0.80;99.90
13446;DHT22;6795;51.232;3.764;2023-01-29T00:02:45;0.80;99.90
13446;DHT22;6795;51.232;3.764;2023-01-29T00:05:13;0.80;99.90
13446;DHT22;6795;51.232;3.764;2023-01-29T00:07:54;0.70;99.90
13446;DHT22;6795;51.232;3.764;2023-01-29T00:10:23;0.80;99.90
13446;DHT22;6795;51.232;3.764;2023-01-29T00:12:53;0.70;99.90
13446;DHT22;6795;51.232;3.764;2023-01-29T00:15:21;0.70;99.90
13446;DHT22;6795;51.232;3.764;2023-01-29T00:17:49;0.70;99.90
13446;DHT22;6795;51.232;3.764;2023-01-29T00:20:18;0.80;99.90
13446;DHT22;6795;51.232;3.764;2023-01-29T00:22:46;0.90;99.90
13446;DHT22;6795;51.232;3.764;2023-01-29T00:25:15;1.00;99.90
13446;DHT22;6795;51.232;3.764;2023-01-29T00:27:43;1.00;99.90
13446;DHT22;6795;51.232;3.764;2023-01-29T00:30:13;1.00;99.90
13446;DHT22;6795;51.232;3.764;2023-01-29T00:32:46;1.10;99.90
13446;DHT22;6795;51.232;3.764;2023-01-29T00:35:14;1.10;99.90
13446;DHT22;6795;51.232;3.764;2023-01-29T00:37:43;1.20;99.90
13446;DHT22;6795;51.232;3.764;2023-01-29T00:40:12;1.30;99.90
13446;DHT22;6795;51.232;3.764;2023-01-29T00:42:43;1.30;99.90
13446;DHT22;6795;51.232;3.764;2023-01-29T00:45:30;1.40;99.90
13446;DHT22;6795;51.232;3.764;2023-01-29T00:47:58;1.40;99.90
13446;DHT22;6795;51.232;3.764;2023-01-29T00:50:28;1.40;99.90
13446;DHT22;6795;51.232;3.764;2023-01-29T00:52:57;1.40;99.90
13446;DHT22;6795;51.232;3.764;2023-01-29T00:55:25;1.50;99.90
13446;DHT22;6795;51.232;3.764;2023-01-29T00:57:53;1.60;99.90
13446;DHT22;6795;51.232;3.764;2023-01-29T01:00:22;1.60;99.90
13446;DHT22;6795;51.232;3.764;2023-01-29T01:02:52;1.60;99.90
13446;DHT22;6795;51.232;3.764;2023-01-29T01:05:32;1.70;99.90
13446;DHT22;6795;51.232;3.764;2023-01-29T01:08:01;1.70;99.90
13446;DHT22;6795;51.232;3.764;2023-01-29T01:10:31;1.60;99.90
13446;DHT22;6795;51.232;3.764;2023-01-29T01:13:00;1.60;99.90
13446;DHT22;6795;51.232;3.764;2023-01-29T01:15:31;1.70;99.90
13446;DHT22;6795;51.232;3.764;2023-01-29T01:18:02;1.70;99.90
13446;DHT22;6795;51.232;3.764;2023-01-29T01:20:33;1.70;99.90
13446;DHT22;6795;51.232;3.764;2023-01-29T01:23:02;1.70;99.90
13446;DHT22;6795;51.232;3.764;2023-01-29T01:25:31;1.80;99.90
13446;DHT22;6795;51.232;3.764;2023-01-29T01:27:59;1.90;99.90
13446;DHT22;6795;51.232;3.764;2023-01-29T01:30:28;1.90;99.90
13446;DHT22;6795;51.232;3.764;2023-01-29T01:32:56;1.90;99.90
13446;DHT22;6795;51.232;3.764;2023-01-29T01:35:26;1.90;99.90
13446;DHT22;6795;51.232;3.764;2023-01-29T01:37:54;1.90;99.90
13446;DHT22;6795;51.232;3.764;2023-01-29T01:40:24;1.90;99.90
13446;DHT22;6795;51.232;3.764;2023-01-29T01:42:55;2.00;99.90
13446;DHT22;6795;51.232;3.764;2023-01-29T01:45:26;2.00;99.90
13446;DHT22;6795;51.232;3.764;2023-01-29T01:47:58;2.00;99.90
13446;DHT22;6795;51.232;3.764;2023-01-29T01:50:33;1.90;99.90
13446;DHT22;6795;51.232;3.764;2023-01-29T01:53:07;1.90;99.90
13446;DHT22;6795;51.232;3.764;2023-01-29T01:55:40;1.90;99.90
13446;DHT22;6795;51.232;3.764;2023-01-29T01:58:13;2.00;99.90
13446;DHT22;6795;51.232;3.764;2023-01-29T02:00:44;2.00;99.90
13446;DHT22;6795;51.232;3.764;2023-01-29T02:03:12;2.00;99.90
13446;DHT22;6795;51.232;3.764;2023-01-29T02:06:00;2.10;99.90
13446;DHT22;6795;51.232;3.764;2023-01-29T02:08:51;2.20;99.90
13446;DHT22;6795;51.232;3.764;2023-01-29T02:11:39;2.20;99.90
13446;DHT22;6795;51.232;3.764;2023-01-29T02:14:08;2.10;99.90
13446;DHT22;6795;51.232;3.764;2023-01-29T02:16:37;2.10;99.90
13446;DHT22;6795;51.232;3.764;2023-01-29T02:19:11;2.20;99.90
13446;DHT22;6795;51.232;3.764;2023-01-29T02:22:06;2.20;99.90
13446;DHT22;6795;51.232;3.764;2023-01-29T02:24:58;2.20;99.90
13446;DHT22;6795;51.232;3.764;2023-01-29T02:30:47;2.20;99.90
13446;DHT22;6795;51.232;3.764;2023-01-29T02:33:23;2.10;99.90
13446;DHT22;6795;51.232;3.764;2023-01-29T02:35:58;2.10;99.90
13446;DHT22;6795;51.232;3.764;2023-01-29T02:38:33;2.20;99.90
13446;DHT22;6795;51.232;3.764;2023-01-29T02:41:06;2.20;99.90
13446;DHT22;6795;51.232;3.764;2023-01-29T02:43:43;2.20;99.90
13446;DHT22;6795;51.232;3.764;2023-01-29T02:46:18;2.30;99.90
13446;DHT22;6795;51.232;3.764;2023-01-29T02:48:53;2.30;99.90
13446;DHT22;6795;51.232;3.764;2023-01-29T02:51:26;2.20;99.90
13446;DHT22;6795;51.232;3.764;2023-01-29T02:54:00;2.30;99.90
13446;DHT22;6795;51.232;3.764;2023-01-29T02:56:35;2.30;99.90
13446;DHT22;6795;51.232;3.764;2023-01-29T02:59:09;2.30;99.90
13446;DHT22;6795;51.232;3.764;2023-01-29T03:01:45;2.30;99.90
13446;DHT22;6795;51.232;3.764;2023-01-29T03:04:18;2.30;99.90
13446;DHT22;6795;51.232;3.764;2023-01-29T03:06:50;2.30;99.90
13446;DHT22;6795;51.232;3.764;2023-01-29T03:09:27;2.30;99.90
13446;DHT22;6795;51.232;3.764;2023-01-29T03:12:03;2.30;99.90
13446;DHT22;6795;51.232;3.764;2023-01-29T03:14:48;2.30;99.90
13446;DHT22;6795;51.232;3.764;2023-01-29T03:17:39;2.30;99.90
13446;DHT22;6795;51.232;3.764;2023-01-29T03:20:12;2.30;99.90
13446;DHT22;6795;51.232;3.764;2023-01-29T03:22:48;2.30;99.90
13446;DHT22;6795;51.232;3.764;2023-01-29T03:25:20;2.30;99.90
13446;DHT22;6795;51.232;3.764;2023-01-29T03:28:09;2.30;99.90
13446;DHT22;6795;51.232;3.764;2023-01-29T03:31:00;2.30;99.90
13446;DHT22;6795;51.232;3.764;2023-01-29T03:33:49;2.30;99.90
13446;DHT22;6795;51.232;3.764;2023-01-29T03:36:21;2.40;99.90
13446;DHT22;6795;51.232;3.764;2023-01-29T03:38:50;2.30;99.90
13446;DHT22;6795;51.232;3.764;2023-01-29T03:41:24;2.30;99.90
13446;DHT22;6795;51.232;3.764;2023-01-29T03:44:06;2.30;99.90
13446;DHT22;6795;51.232;3.764;2023-01-29T03:46:40;2.30;99.90
13446;DHT22;6795;51.232;3.764;2023-01-29T03:49:18;2.40;99.90
13446;DHT22;6795;51.232;3.764;2023-01-29T03:51:56;2.40;99.90
13446;DHT22;6795;51.232;3.764;2023-01-29T03:54:33;2.40;99.90
13446;DHT22;6795;51.232;3.764;2023-01-29T03:57:10;2.40;99.90
13446;DHT22;6795;51.232;3.764;2023-01-29T03:59:49;2.40;99.90
13446;DHT22;6795;51.232;3.764;2023-01-29T04:02:23;2.40;99.90
13446;DHT22;6795;51.232;3.764;2023-01-29T04:04:58;2.40;99.90
13446;DHT22;6795;51.232;3.764;2023-01-29T04:07:27;2.40;99.90
13446;DHT22;6795;51.232;3.764;2023-01-29T04:10:04;2.40;99.90
13446;DHT22;6795;51.232;3.764;2023-01-29T04:12:39;2.40;99.90
13446;DHT22;6795;51.232;3.764;2023-01-29T04:15:13;2.40;99.90
13446;DHT22;6795;51.232;3.764;2023-01-29T04:17:44;2.50;99.90
13446;DHT22;6795;51.232;3.764;2023-01-29T04:20:17;2.50;99.90
13446;DHT22;6795;51.232;3.764;2023-01-29T04:22:48;2.40;99.90
13446;DHT22;6795;51.232;3.764;2023-01-29T04:25:18;2.50;99.90
13446;DHT22;6795;51.232;3.764;2023-01-29T04:27:59;2.40;99.90
13446;DHT22;6795;51.232;3.764;2023-01-29T04:30:38;2.50;99.90
13446;DHT22;6795;51.232;3.764;2023-01-29T04:33:20;2.50;99.90
13446;DHT22;6795;51.232;3.764;2023-01-29T04:36:03;2.50;99.90
13446;DHT22;6795;51.232;3.764;2023-01-29T04:38:43;2.50;99.90
13446;DHT22;6795;51.232;3.764;2023-01-29T04:41:21;2.50;99.90
13446;DHT22;6795;51.232;3.764;2023-01-29T04:43:58;2.50;99.90
13446;DHT22;6795;51.232;3.764;2023-01-29T04:46:33;2.50;99.90
13446;DHT22;6795;51.232;3.764;2023-01-29T04:49:14;2.50;99.90
13446;DHT22;6795;51.232;3.764;2023-01-29T04:51:50;2.50;99.90
13446;DHT22;6795;51.232;3.764;2023-01-29T04:54:29;2.60;99.90
13446;DHT22;6795;51.232;3.764;2023-01-29T04:57:07;2.60;99.90
13446;DHT22;6795;51.232;3.764;2023-01-29T04:59:41;2.60;99.90
13446;DHT22;6795;51.232;3.764;2023-01-29T05:02:12;2.60;99.90
13446;DHT22;6795;51.232;3.764;2023-01-29T05:04:43;2.60;99.90
13446;DHT22;6795;51.232;3.764;2023-01-29T05:07:15;2.60;99.90
13446;DHT22;6795;51.232;3.764;2023-01-29T05:09:44;2.60;99.90
13446;DHT22;6795;51.232;3.764;2023-01-29T05:12:15;2.60;99.90
13446;DHT22;6795;51.232;3.764;2023-01-29T05:14:45;2.60;99.90
13446;DHT22;6795;51.232;3.764;2023-01-29T05:17:16;2.60;99.90
13446;DHT22;6795;51.232;3.764;2023-01-29T05:19:45;2.60;99.90
13446;DHT22;6795;51.232;3.764;2023-01-29T05:22:17;2.50;99.90
13446;DHT22;6795;51.232;3.764;2023-01-29T05:24:49;2.50;99.90
13446;DHT22;6795;51.232;3.764;2023-01-29T05:27:20;2.60;99.90
13446;DHT22;6795;51.232;3.764;2023-01-29T05:30:08;2.60;99.90
13446;DHT22;6795;51.232;3.764;2023-01-29T05:32:37;2.60;99.90
13446;DHT22;6795;51.232;3.764;2023-01-29T05:35:06;2.60;99.90
13446;DHT22;6795;51.232;3.764;2023-01-29T05:37:36;2.60;99.90
13446;DHT22;6795;51.232;3.764;2023-01-29T05:40:05;2.70;99.90
13446;DHT22;6795;51.232;3.764;2023-01-29T05:42:35;2.70;99.90
13446;DHT22;6795;51.232;3.764;2023-01-29T05:45:05;2.80;99.90
13446;DHT22;6795;51.232;3.764;2023-01-29T05:47:33;2.70;99.90
13446;DHT22;6795;51.232;3.764;2023-01-29T05:50:02;2.80;99.90
13446;DHT22;6795;51.232;3.764;2023-01-29T05:52:31;2.70;99.90
13446;DHT22;6795;51.232;3.764;2023-01-29T05:55:03;2.70;99.90
13446;DHT22;6795;51.232;3.764;2023-01-29T05:57:31;2.70;99.90
13446;DHT22;6795;51.232;3.764;2023-01-29T06:00:00;2.70;99.90
13446;DHT22;6795;51.232;3.764;2023-01-29T06:02:29;2.70;99.90
13446;DHT22;6795;51.232;3.764;2023-01-29T06:04:58;2.70;99.90
13446;DHT22;6795;51.232;3.764;2023-01-29T06:07:26;2.70;99.90
13446;DHT22;6795;51.232;3.764;2023-01-29T06:09:55;2.70;99.90
13446;DHT22;6795;51.232;3.764;2023-01-29T06:12:25;2.70;99.90
13446;DHT22;6795;51.232;3.764;2023-01-29T06:14:54;2.70;99.90
13446;DHT22;6795;51.232;3.764;2023-01-29T06:17:22;2.70;99.90
13446;DHT22;6795;51.232;3.764;2023-01-29T06:19:50;2.80;99.90
13446;DHT22;6795;51.232;3.764;2023-01-29T06:22:19;2.70;99.90
13446;DHT22;6795;51.232;3.764;2023-01-29T06:24:47;2.70;99.90
13446;DHT22;6795;51.232;3.764;2023-01-29T06:27:16;2.70;99.90
13446;DHT22;6795;51.232;3.764;2023-01-29T06:29:45;2.80;99.90
13446;DHT22;6795;51.232;3.764;2023-01-29T06:32:14;2.80;99.90
13446;DHT22;6795;51.232;3.764;2023-01-29T06:34:42;2.80;99.90
13446;DHT22;6795;51.232;3.764;2023-01-29T06:37:11;2.90;99.90
13446;DHT22;6795;51.232;3.764;2023-01-29T06:39:39;2.90;99.90
13446;DHT22;6795;51.232;3.764;2023-01-29T06:42:07;2.90;99.90
13446;DHT22;6795;51.232;3.764;2023-01-29T06:44:37;2.90;99.90
13446;DHT22;6795;51.232;3.764;2023-01-29T06:47:06;2.90;99.90
13446;DHT22;6795;51.232;3.764;2023-01-29T06:49:35;2.90;99.90
13446;DHT22;6795;51.232;3.764;2023-01-29T06:52:04;2.90;99.90
13446;DHT22;6795;51.232;3.764;2023-01-29T06:54:32;2.90;99.90
13446;DHT22;6795;51.232;3.764;2023-01-29T06:57:00;2.90;99.90
13446;DHT22;6795;51.232;3.764;2023-01-29T06:59:29;2.90;99.90
13446;DHT22;6795;51.232;3.764;2023-01-29T07:01:57;2.90;99.90
13446;DHT22;6795;51.232;3.764;2023-01-29T07:04:27;2.90;99.90
13446;DHT22;6795;51.232;3.764;2023-01-29T07:06:57;2.90;99.90
13446;DHT22;6795;51.232;3.764;2023-01-29T07:09:26;2.90;99.90
13446;DHT22;6795;51.232;3.764;2023-01-29T07:11:54;3.00;99.90
13446;DHT22;6795;51.232;3.764;2023-01-29T07:14:23;3.00;99.90
13446;DHT22;6795;51.232;3.764;2023-01-29T07:16:51;3.00;99.90
13446;DHT22;6795;51.232;3.764;2023-01-29T07:19:20;3.00;99.90
13446;DHT22;6795;51.232;3.764;2023-01-29T07:21:51;3.00;99.90
13446;DHT22;6795;51.232;3.764;2023-01-29T07:24:19;3.00;99.90
13446;DHT22;6795;51.232;3.764;2023-01-29T07:26:48;3.00;99.90
13446;DHT22;6795;51.232;3.764;2023-01-29T07:29:17;3.00;99.90
13446;DHT22;6795;51.232;3.764;2023-01-29T07:31:46;3.00;99.90
13446;DHT22;6795;51.232;3.764;2023-01-29T07:34:14;3.00;99.90
13446;DHT22;6795;51.232;3.764;2023-01-29T07:36:43;3.00;99.90
13446;DHT22;6795;51.232;3.764;2023-01-29T07:39:12;3.10;99.90
13446;DHT22;6795;51.232;3.764;2023-01-29T07:41:41;3.00;99.90
13446;DHT22;6795;51.232;3.764;2023-01-29T07:44:09;3.00;99.90
13446;DHT22;6795;51.232;3.764;2023-01-29T07:46:38;3.10;99.90
13446;DHT22;6795;51.232;3.764;2023-01-29T07:49:07;3.10;99.90
13446;DHT22;6795;51.232;3.764;2023-01-29T07:51:35;3.10;99.90
13446;DHT22;6795;51.232;3.764;2023-01-29T07:54:04;3.10;99.90
13446;DHT22;6795;51.232;3.764;2023-01-29T07:56:34;3.10;99.90
13446;DHT22;6795;51.232;3.764;2023-01-29T07:59:02;3.10;99.90
13446;DHT22;6795;51.232;3.764;2023-01-29T08:01:30;3.10;99.90
13446;DHT22;6795;51.232;3.764;2023-01-29T08:03:59;3.10;99.90
13446;DHT22;6795;51.232;3.764;2023-01-29T08:06:28;3.20;99.90
13446;DHT22;6795;51.232;3.764;2023-01-29T08:08:57;3.20;99.90
13446;DHT22;6795;51.232;3.764;2023-01-29T08:11:25;3.20;99.90
13446;DHT22;6795;51.232;3.764;2023-01-29T08:13:57;3.20;99.90
13446;DHT22;6795;51.232;3.764;2023-01-29T08:16:26;3.30;99.90
13446;DHT22;6795;51.232;3.764;2023-01-29T08:18:55;3.30;99.90
13446;DHT22;6795;51.232;3.764;2023-01-29T08:21:23;3.30;99.90
13446;DHT22;6795;51.232;3.764;2023-01-29T08:23:52;3.30;99.90
13446;DHT22;6795;51.232;3.764;2023-01-29T08:26:20;3.30;99.90
13446;DHT22;6795;51.232;3.764;2023-01-29T08:28:49;3.30;99.90
13446;DHT22;6795;51.232;3.764;2023-01-29T08:31:19;3.40;99.90
13446;DHT22;6795;51.232;3.764;2023-01-29T08:33:48;3.40;99.90
13446;DHT22;6795;51.232;3.764;2023-01-29T08:36:19;3.40;99.90
13446;DHT22;6795;51.232;3.764;2023-01-29T08:38:48;3.50;99.90
13446;DHT22;6795;51.232;3.764;2023-01-29T08:41:16;3.50;99.90
13446;DHT22;6795;51.232;3.764;2023-01-29T08:43:45;3.60;99.90
13446;DHT22;6795;51.232;3.764;2023-01-29T08:46:13;3.60;99.90
13446;DHT22;6795;51.232;3.764;2023-01-29T08:48:43;3.60;99.90
13446;DHT22;6795;51.232;3.764;2023-01-29T08:51:12;3.60;99.90
13446;DHT22;6795;51.232;3.764;2023-01-29T08:53:40;3.60;99.90
13446;DHT22;6795;51.232;3.764;2023-01-29T08:56:08;3.60;99.90
13446;DHT22;6795;51.232;3.764;2023-01-29T08:58:37;3.60;99.90
13446;DHT22;6795;51.232;3.764;2023-01-29T09:01:06;3.70;99.90
13446;DHT22;6795;51.232;3.764;2023-01-29T09:03:35;3.70;99.90
13446;DHT22;6795;51.232;3.764;2023-01-29T09:06:10;3.60;99.90
13446;DHT22;6795;51.232;3.764;2023-01-29T09:08:39;3.70;99.90
13446;DHT22;6795;51.232;3.764;2023-01-29T09:11:08;3.70;99.90
13446;DHT22;6795;51.232;3.764;2023-01-29T09:13:36;3.70;99.90
13446;DHT22;6795;51.232;3.764;2023-01-29T09:16:05;3.70;99.90
13446;DHT22;6795;51.232;3.764;2023-01-29T09:18:34;3.70;99.90
13446;DHT22;6795;51.232;3.764;2023-01-29T09:21:03;3.70;99.90
13446;DHT22;6795;51.232;3.764;2023-01-29T09:23:33;3.70;99.90
13446;DHT22;6795;51.232;3.764;2023-01-29T09:26:02;3.70;99.90
13446;DHT22;6795;51.232;3.764;2023-01-29T09:28:32;3.70;99.90
13446;DHT22;6795;51.232;3.764;2023-01-29T09:31:01;3.80;99.90
13446;DHT22;6795;51.232;3.764;2023-01-29T09:33:30;3.90;99.90
13446;DHT22;6795;51.232;3.764;2023-01-29T09:35:58;3.90;99.90
13446;DHT22;6795;51.232;3.764;2023-01-29T09:38:27;3.90;99.90
13446;DHT22;6795;51.232;3.764;2023-01-29T09:41:07;4.00;99.90
13446;DHT22;6795;51.232;3.764;2023-01-29T09:43:46;4.00;99.90
13446;DHT22;6795;51.232;3.764;2023-01-29T09:46:20;4.10;99.90
13446;DHT22;6795;51.232;3.764;2023-01-29T09:48:55;4.20;99.90
13446;DHT22;6795;51.232;3.764;2023-01-29T09:51:28;4.20;99.90
13446;DHT22;6795;51.232;3.764;2023-01-29T09:54:10;4.30;99.90
13446;DHT22;6795;51.232;3.764;2023-01-29T09:56:43;4.30;99.90
13446;DHT22;6795;51.232;3.764;2023-01-29T09:59:13;4.40;99.90
13446;DHT22;6795;51.232;3.764;2023-01-29T10:01:53;4.40;99.90
13446;DHT22;6795;51.232;3.764;2023-01-29T10:04:51;4.50;99.90
13446;DHT22;6795;51.232;3.764;2023-01-29T10:10:34;4.60;99.90
13446;DHT22;6795;51.232;3.764;2023-01-29T10:13:14;4.60;99.90
13446;DHT22;6795;51.232;3.764;2023-01-29T10:15:56;4.70;99.90
13446;DHT22;6795;51.232;3.764;2023-01-29T10:18:52;4.80;99.90
13446;DHT22;6795;51.232;3.764;2023-01-29T10:21:49;4.90;99.90
13446;DHT22;6795;51.232;3.764;2023-01-29T10:24:25;4.90;99.90
13446;DHT22;6795;51.232;3.764;2023-01-29T10:26:57;5.00;99.90
13446;DHT22;6795;51.232;3.764;2023-01-29T10:29:28;5.00;99.90
13446;DHT22;6795;51.232;3.764;2023-01-29T10:32:01;5.10;99.90
13446;DHT22;6795;51.232;3.764;2023-01-29T10:34:35;5.20;99.90
13446;DHT22;6795;51.232;3.764;2023-01-29T10:37:13;5.20;99.90
13446;DHT22;6795;51.232;3.764;2023-01-29T10:39:44;5.30;99.90
13446;DHT22;6795;51.232;3.764;2023-01-29T10:42:25;5.50;99.90
13446;DHT22;6795;51.232;3.764;2023-01-29T10:45:05;5.60;99.90
13446;DHT22;6795;51.232;3.764;2023-01-29T10:47:58;5.60;99.90
13446;DHT22;6795;51.232;3.764;2023-01-29T10:50:41;5.70;99.90
13446;DHT22;6795;51.232;3.764;2023-01-29T10:53:22;5.70;99.90
13446;DHT22;6795;51.232;3.764;2023-01-29T10:56:00;5.70;99.90
13446;DHT22;6795;51.232;3.764;2023-01-29T10:58:50;5.60;99.90
13446;DHT22;6795;51.232;3.764;2023-01-29T11:01:21;5.70;99.90
13446;DHT22;6795;51.232;3.764;2023-01-29T11:03:56;5.60;99.90
13446;DHT22;6795;51.232;3.764;2023-01-29T11:06:29;5.90;99.90
13446;DHT22;6795;51.232;3.764;2023-01-29T11:09:04;6.10;99.90
13446;DHT22;6795;51.232;3.764;2023-01-29T11:11:40;6.30;99.90
13446;DHT22;6795;51.232;3.764;2023-01-29T11:14:13;6.30;99.90
13446;DHT22;6795;51.232;3.764;2023-01-29T11:16:46;6.50;99.90
13446;DHT22;6795;51.232;3.764;2023-01-29T11:19:15;6.40;99.90
13446;DHT22;6795;51.232;3.764;2023-01-29T11:21:52;6.40;99.90
13446;DHT22;6795;51.232;3.764;2023-01-29T11:24:24;6.30;99.90
13446;DHT22;6795;51.232;3.764;2023-01-29T11:26:54;6.30;99.90
13446;DHT22;6795;51.232;3.764;2023-01-29T11:29:38;6.20;99.90
13446;DHT22;6795;51.232;3.764;2023-01-29T11:32:12;6.20;99.90
13446;DHT22;6795;51.232;3.764;2023-01-29T11:34:58;6.20;99.90
13446;DHT22;6795;51.232;3.764;2023-01-29T11:37:35;6.00;99.90
13446;DHT22;6795;51.232;3.764;2023-01-29T11:40:38;5.90;99.90
13446;DHT22;6795;51.232;3.764;2023-01-29T11:43:18;5.90;99.90
13446;DHT22;6795;51.232;3.764;2023-01-29T11:45:48;5.90;99.90
13446;DHT22;6795;51.232;3.764;2023-01-29T11:48:19;5.90;99.90
13446;DHT22;6795;51.232;3.764;2023-01-29T11:50:53;5.90;99.90
13446;DHT22;6795;51.232;3.764;2023-01-29T11:53:32;6.00;99.90
13446;DHT22;6795;51.232;3.764;2023-01-29T11:56:06;6.00;99.90
13446;DHT22;6795;51.232;3.764;2023-01-29T11:58:43;6.00;99.90
13446;DHT22;6795;51.232;3.764;2023-01-29T12:01:14;6.00;99.90
13446;DHT22;6795;51.232;3.764;2023-01-29T12:03:48;5.90;99.90
13446;DHT22;6795;51.232;3.764;2023-01-29T12:06:20;5.80;99.90
13446;DHT22;6795;51.232;3.764;2023-01-29T12:08:55;5.80;99.90
13446;DHT22;6795;51.232;3.764;2023-01-29T12:11:27;5.80;99.90
13446;DHT22;6795;51.232;3.764;2023-01-29T12:13:57;5.80;99.90
13446;DHT22;6795;51.232;3.764;2023-01-29T12:16:30;5.70;99.90
13446;DHT22;6795;51.232;3.764;2023-01-29T12:19:10;5.70;99.90
13446;DHT22;6795;51.232;3.764;2023-01-29T12:21:45;5.70;99.90
13446;DHT22;6795;51.232;3.764;2023-01-29T12:24:27;5.80;99.90
13446;DHT22;6795;51.232;3.764;2023-01-29T12:27:03;5.80;99.90
13446;DHT22;6795;51.232;3.764;2023-01-29T12:29:40;5.80;99.90
13446;DHT22;6795;51.232;3.764;2023-01-29T12:32:18;6.00;99.90
13446;DHT22;6795;51.232;3.764;2023-01-29T12:34:54;6.00;99.90
13446;DHT22;6795;51.232;3.764;2023-01-29T12:37:27;6.10;99.90
13446;DHT22;6795;51.232;3.764;2023-01-29T12:39:58;6.10;99.90
13446;DHT22;6795;51.232;3.764;2023-01-29T12:42:28;6.10;99.90
13446;DHT22;6795;51.232;3.764;2023-01-29T12:44:59;6.10;99.90
13446;DHT22;6795;51.232;3.764;2023-01-29T12:47:33;6.10;99.90
13446;DHT22;6795;51.232;3.764;2023-01-29T12:50:16;6.10;99.90
13446;DHT22;6795;51.232;3.764;2023-01-29T12:52:49;6.20;99.90
13446;DHT22;6795;51.232;3.764;2023-01-29T12:55:20;6.20;99.90
13446;DHT22;6795;51.232;3.764;2023-01-29T12:57:53;6.20;99.90
13446;DHT22;6795;51.232;3.764;2023-01-29T13:00:27;6.30;99.90
13446;DHT22;6795;51.232;3.764;2023-01-29T13:03:00;6.30;99.90
13446;DHT22;6795;51.232;3.764;2023-01-29T13:05:39;6.30;99.90
13446;DHT22;6795;51.232;3.764;2023-01-29T13:08:15;6.40;99.90
13446;DHT22;6795;51.232;3.764;2023-01-29T13:10:48;6.30;99.90
13446;DHT22;6795;51.232;3.764;2023-01-29T13:13:23;6.30;99.90
13446;DHT22;6795;51.232;3.764;2023-01-29T13:15:54;6.30;99.90
13446;DHT22;6795;51.232;3.764;2023-01-29T13:18:40;6.40;99.90
13446;DHT22;6795;51.232;3.764;2023-01-29T13:21:17;6.40;99.90
13446;DHT22;6795;51.232;3.764;2023-01-29T13:23:48;6.40;99.90
13446;DHT22;6795;51.232;3.764;2023-01-29T13:26:18;6.40;99.90
13446;DHT22;6795;51.232;3.764;2023-01-29T13:28:48;6.40;99.90
13446;DHT22;6795;51.232;3.764;2023-01-29T13:31:27;6.40;99.90
13446;DHT22;6795;51.232;3.764;2023-01-29T13:34:06;6.30;99.90
13446;DHT22;6795;51.232;3.764;2023-01-29T13:36:41;6.40;99.90
13446;DHT22;6795;51.232;3.764;2023-01-29T13:39:19;6.50;99.90
13446;DHT22;6795;51.232;3.764;2023-01-29T13:41:50;6.50;99.90
13446;DHT22;6795;51.232;3.764;2023-01-29T13:44:22;6.50;99.90
13446;DHT22;6795;51.232;3.764;2023-01-29T13:46:54;6.40;99.90
13446;DHT22;6795;51.232;3.764;2023-01-29T13:49:35;6.40;99.90
13446;DHT22;6795;51.232;3.764;2023-01-29T13:52:23;6.40;99.90
13446;DHT22;6795;51.232;3.764;2023-01-29T13:54:56;6.30;99.90
13446;DHT22;6795;51.232;3.764;2023-01-29T13:57:36;6.10;99.90
13446;DHT22;6795;51.232;3.764;2023-01-29T14:00:09;6.10;99.90
13446;DHT22;6795;51.232;3.764;2023-01-29T14:06:37;6.10;99.90
13446;DHT22;6795;51.232;3.764;2023-01-29T14:09:33;6.10;99.90
13446;DHT22;6795;51.232;3.764;2023-01-29T14:12:44;6.00;99.90
13446;DHT22;6795;51.232;3.764;2023-01-29T14:15:28;6.10;99.90
13446;DHT22;6795;51.232;3.764;2023-01-29T14:18:16;6.10;99.90
13446;DHT22;6795;51.232;3.764;2023-01-29T14:20:57;6.10;99.90
13446;DHT22;6795;51.232;3.764;2023-01-29T14:23:37;6.10;99.90
13446;DHT22;6795;51.232;3.764;2023-01-29T14:26:25;6.10;99.90
13446;DHT22;6795;51.232;3.764;2023-01-29T14:29:01;6.10;99.90
13446;DHT22;6795;51.232;3.764;2023-01-29T14:31:37;6.10;99.90
13446;DHT22;6795;51.232;3.764;2023-01-29T14:34:16;6.20;99.90
13446;DHT22;6795;51.232;3.764;2023-01-29T14:36:46;6.10;99.90
13446;DHT22;6795;51.232;3.764;2023-01-29T14:39:31;6.10;99.90
13446;DHT22;6795;51.232;3.764;2023-01-29T14:42:13;6.10;99.90
13446;DHT22;6795;51.232;3.764;2023-01-29T14:44:57;6.10;99.90
13446;DHT22;6795;51.232;3.764;2023-01-29T14:47:56;5.90;99.90
13446;DHT22;6795;51.232;3.764;2023-01-29T14:53:52;5.90;99.90
13446;DHT22;6795;51.232;3.764;2023-01-29T14:56:27;5.80;99.90
13446;DHT22;6795;51.232;3.764;2023-01-29T14:59:10;5.80;99.90
13446;DHT22;6795;51.232;3.764;2023-01-29T15:01:46;5.80;99.90
13446;DHT22;6795;51.232;3.764;2023-01-29T15:04:17;5.80;99.90
13446;DHT22;6795;51.232;3.764;2023-01-29T15:06:51;5.70;99.90
13446;DHT22;6795;51.232;3.764;2023-01-29T15:09:30;5.70;99.90
13446;DHT22;6795;51.232;3.764;2023-01-29T15:12:09;5.70;99.90
13446;DHT22;6795;51.232;3.764;2023-01-29T15:14:48;5.80;99.90
13446;DHT22;6795;51.232;3.764;2023-01-29T15:17:23;5.70;99.90
13446;DHT22;6795;51.232;3.764;2023-01-29T15:19:52;5.70;99.90
13446;DHT22;6795;51.232;3.764;2023-01-29T15:22:23;5.70;99.90
13446;DHT22;6795;51.232;3.764;2023-01-29T15:25:03;5.70;99.90
13446;DHT22;6795;51.232;3.764;2023-01-29T15:27:33;5.70;99.90
13446;DHT22;6795;51.232;3.764;2023-01-29T15:30:05;5.90;99.90
13446;DHT22;6795;51.232;3.764;2023-01-29T15:32:36;6.00;99.90
13446;DHT22;6795;51.232;3.764;2023-01-29T15:35:08;5.80;99.90
13446;DHT22;6795;51.232;3.764;2023-01-29T15:37:38;5.80;99.90
13446;DHT22;6795;51.232;3.764;2023-01-29T15:40:13;5.90;99.90
13446;DHT22;6795;51.232;3.764;2023-01-29T15:42:44;5.90;99.90
13446;DHT22;6795;51.232;3.764;2023-01-29T15:45:27;5.70;99.90
13446;DHT22;6795;51.232;3.764;2023-01-29T15:48:01;5.60;99.90
13446;DHT22;6795;51.232;3.764;2023-01-29T15:50:33;5.60;99.90
13446;DHT22;6795;51.232;3.764;2023-01-29T15:53:06;5.60;99.90
13446;DHT22;6795;51.232;3.764;2023-01-29T15:55:36;5.60;99.90
13446;DHT22;6795;51.232;3.764;2023-01-29T15:58:06;5.60;99.90
13446;DHT22;6795;51.232;3.764;2023-01-29T16:00:36;5.60;99.90
13446;DHT22;6795;51.232;3.764;2023-01-29T16:03:13;5.60;99.90
13446;DHT22;6795;51.232;3.764;2023-01-29T16:05:42;5.50;99.90
13446;DHT22;6795;51.232;3.764;2023-01-29T16:08:12;5.50;99.90
13446;DHT22;6795;51.232;3.764;2023-01-29T16:10:41;5.50;99.90
13446;DHT22;6795;51.232;3.764;2023-01-29T16:13:19;5.40;99.90
13446;DHT22;6795;51.232;3.764;2023-01-29T16:15:57;5.40;99.90
13446;DHT22;6795;51.232;3.764;2023-01-29T16:18:29;5.50;99.90
13446;DHT22;6795;51.232;3.764;2023-01-29T16:21:03;5.40;99.90
13446;DHT22;6795;51.232;3.764;2023-01-29T16:23:35;5.40;99.90
13446;DHT22;6795;51.232;3.764;2023-01-29T16:26:11;5.40;99.90
13446;DHT22;6795;51.232;3.764;2023-01-29T16:28:41;5.30;99.90
13446;DHT22;6795;51.232;3.764;2023-01-29T16:31:12;5.30;99.90
13446;DHT22;6795;51.232;3.764;2023-01-29T16:33:42;5.30;99.90
13446;DHT22;6795;51.232;3.764;2023-01-29T16:36:15;5.30;99.90
13446;DHT22;6795;51.232;3.764;2023-01-29T16:38:46;5.30;99.90
13446;DHT22;6795;51.232;3.764;2023-01-29T16:41:28;5.30;99.90
13446;DHT22;6795;51.232;3.764;2023-01-29T16:43:58;5.30;99.90
13446;DHT22;6795;51.232;3.764;2023-01-29T16:46:34;5.30;99.90
13446;DHT22;6795;51.232;3.764;2023-01-29T16:49:42;5.30;99.90
13446;DHT22;6795;51.232;3.764;2023-01-29T16:52:19;5.20;99.90
13446;DHT22;6795;51.232;3.764;2023-01-29T16:54:50;5.20;99.90
13446;DHT22;6795;51.232;3.764;2023-01-29T16:57:21;5.10;99.90